M I D A S
Marine Information and Data Acquisition System
Tripno 719 of the Zeeleeuw from 2004-05-18 06:12:13 to 2004-05-18 12:34:22
Back to CruiseResearch ActivitiesStationsMapUnderway DataData graphs

EquipmentUnitsComment
TimeDGPSUTC
LatitudeDGPSDM.mWGS84
LongitudeDGPSDM.mWGS84
HeadingGyrodeg 
SOGDGPSknotsSpeed over ground
COGDGPSdegCourse over ground
DepthEcho soundermeters200 kHz
Missing or incorrect values are displayed as -999
Navigation data collected by the RV Zeeleeuw from 2004-05-18 06:12:13 to 2004-05-18 12:34:22
Time Latitude Longitude Heading SOG COG Depth
2004-05-18 06:13:14 51°13.679 2°55.762 95 2.9 275 10.3
2004-05-18 06:14:12 51°13.689 2°55.749 45.8 1.8 28 12.1
2004-05-18 06:15:13 51°13.74 2°55.734 335.8 4.2 331 7.9
2004-05-18 06:16:13 51°13.808 2°55.661 328.4 4.8 325 8.3
2004-05-18 06:17:13 51°13.868 2°55.613 346.3 3.6 340 8.3
2004-05-18 06:18:13 51°13.926 2°55.581 346.9 4 341 8.5
2004-05-18 06:19:12 51°13.991 2°55.545 343 4.3 338 10.1
2004-05-18 06:20:13 51°14.066 2°55.477 337.4 6.6 330 9.8
2004-05-18 06:21:13 51°14.205 2°55.348 331.3 11 324 9.6
2004-05-18 06:22:13 51°14.335 2°55.132 310.6 12 303 9.2
2004-05-18 06:23:20 51°14.424 2°54.783 281.6 13.6 269 9.1
2004-05-18 06:24:20 51°14.386 2°54.419 264.1 14 259 8
2004-05-18 06:25:21 51°14.309 2°54.066 244.9 14.1 239 7.7
2004-05-18 06:26:20 51°14.193 2°53.741 246.3 14.4 240 7.7
2004-05-18 06:27:20 51°14.074 2°53.406 251.1 14.5 247 8
2004-05-18 06:28:20 51°13.976 2°53.054 245.3 14.7 239 8.5
2004-05-18 06:29:21 51°13.867 2°52.697 251.1 14.8 244 8.9
2004-05-18 06:30:21 51°13.755 2°52.344 251.2 14.9 244 9
2004-05-18 06:31:21 51°13.626 2°52.005 244 15 239 9.1
2004-05-18 06:32:20 51°13.501 2°51.668 243.3 15 239 9.1
2004-05-18 06:33:21 51°13.369 2°51.321 242.7 15 237 9.4
2004-05-18 06:34:20 51°13.242 2°50.986 243.8 15 238 9.5
2004-05-18 06:35:21 51°13.107 2°50.64 244.8 15.2 240 9.6
2004-05-18 06:36:24 51°12.971 2°50.27 246 15.4 241 9.7
2004-05-18 06:37:25 51°12.841 2°49.911 245.8 15.4 241 9.8
2004-05-18 06:38:25 51°12.712 2°49.558 245.1 15.3 240 9.9
2004-05-18 06:39:25 51°12.584 2°49.208 245.1 15.3 240 9.9
2004-05-18 06:40:24 51°12.457 2°48.865 244.5 15.3 240 9.9
2004-05-18 06:41:25 51°12.326 2°48.509 244 15.3 239 10
2004-05-18 06:42:25 51°12.208 2°48.147 249.7 15.4 244 10.1
2004-05-18 06:43:25 51°12.093 2°47.78 248.2 15.5 243 10.2
2004-05-18 06:44:24 51°11.979 2°47.418 248.2 15.5 244 10.3
2004-05-18 06:45:25 51°11.862 2°47.045 248.6 15.5 244 10.2
2004-05-18 06:46:25 51°11.748 2°46.677 249.5 15.5 244 10.4
2004-05-18 06:47:24 51°11.641 2°46.311 253.6 15.5 248 10.3
2004-05-18 06:48:24 51°11.542 2°45.932 251.9 15.5 247 10.3
2004-05-18 06:49:25 51°11.44 2°45.549 252.2 15.5 247 10.3
2004-05-18 06:50:26 51°11.338 2°45.167 251.9 15.5 248 10.2
2004-05-18 06:51:25 51°11.24 2°44.796 251.7 15.4 247 10.1
2004-05-18 06:52:24 51°11.143 2°44.424 252.6 15.4 247 10
2004-05-18 06:53:25 51°11.066 2°44.028 262.5 15.4 257 10.1
2004-05-18 06:54:25 51°10.997 2°43.634 258.2 15.5 253 10.2
2004-05-18 06:55:26 51°10.919 2°43.235 258.4 15.5 253 10.3
2004-05-18 06:56:24 51°10.846 2°42.855 258.2 15.6 253 10.4
2004-05-18 06:57:26 51°10.768 2°42.448 258.3 15.5 253 10.5
2004-05-18 06:58:24 51°10.696 2°42.068 258.1 15.5 253 10.5
2004-05-18 06:59:26 51°10.62 2°41.662 257.6 15.5 253 10.6
2004-05-18 07:00:24 51°10.55 2°41.283 257.9 15.4 253 10.8
2004-05-18 07:01:25 51°10.476 2°40.884 258.2 15.4 253 10.9
2004-05-18 07:02:25 51°10.404 2°40.492 258.9 15.4 254 11.1
2004-05-18 07:03:26 51°10.331 2°40.096 258 15.3 254 11.5
2004-05-18 07:04:25 51°10.261 2°39.716 258.5 15.2 254 12
2004-05-18 07:05:25 51°10.185 2°39.332 254.7 15.2 250 12.8
2004-05-18 07:06:24 51°10.099 2°38.961 253.3 15.2 250 13.2
2004-05-18 07:07:24 51°10.013 2°38.582 254.5 15.3 251 13.8
2004-05-18 07:08:26 51°9.924 2°38.188 254.2 15.3 250 14.4
2004-05-18 07:09:31 51°9.839 2°37.77 256.1 15.3 252 14.9
2004-05-18 07:10:32 51°9.759 2°37.377 255.9 15.3 252 15
2004-05-18 07:11:32 51°9.679 2°36.99 256.2 15.4 252 15
2004-05-18 07:12:31 51°9.602 2°36.608 256.6 15.5 252 14.7
2004-05-18 07:13:32 51°9.529 2°36.252 257.2 10.8 252 15
2004-05-18 07:14:31 51°9.492 2°36.043 262.7 7 255 15.1
2004-05-18 07:15:31 51°9.464 2°35.894 257.8 4.5 251 15.6
2004-05-18 07:16:32 51°9.45 2°35.813 278.8 2.9 257 15.4
2004-05-18 07:17:31 51°9.444 2°35.727 287.3 3.5 267 15.8
2004-05-18 07:18:32 51°9.443 2°35.632 293.5 3.6 271 16
2004-05-18 07:19:32 51°9.446 2°35.541 299.4 3.4 274 16.4
2004-05-18 07:20:32 51°9.45 2°35.453 302.5 3.3 275 16.1
2004-05-18 07:21:32 51°9.456 2°35.367 305.2 3.2 277 16.2
2004-05-18 07:22:32 51°9.463 2°35.283 307.8 3.2 278 16.8
2004-05-18 07:23:32 51°9.47 2°35.2 308.1 3.2 276 17.3
2004-05-18 07:24:32 51°9.477 2°35.117 309.9 3.2 278 16.9
2004-05-18 07:25:32 51°9.485 2°35.034 313.1 3.1 280 17.3
2004-05-18 07:26:32 51°9.495 2°34.953 320.6 3 283 17.8
2004-05-18 07:27:32 51°9.508 2°34.878 328.7 2.9 287 18.1
2004-05-18 07:28:32 51°9.523 2°34.809 337.2 2.7 291 18.7
2004-05-18 07:29:32 51°9.54 2°34.75 348.1 2.3 300 18.6
2004-05-18 07:30:32 51°9.561 2°34.71 4.6 1.8 314 18.4
2004-05-18 07:31:31 51°9.581 2°34.683 14.8 1.6 326 18
2004-05-18 07:32:30 51°9.602 2°34.665 24.6 1.2 331 17.5
2004-05-18 07:33:32 51°9.617 2°34.652 33.3 0.8 327 17.2
2004-05-18 07:34:32 51°9.642 2°34.654 34.8 3.8 20 16.8
2004-05-18 07:35:37 51°9.799 2°34.779 36.1 12.3 28 13.2
2004-05-18 07:36:38 51°9.96 2°34.926 43.6 7.6 45 10.2
2004-05-18 07:37:36 51°9.969 2°35.036 101.2 2.4 118 11.3
2004-05-18 07:38:38 51°9.956 2°35.031 134.7 0.9 213 11.2
2004-05-18 07:39:44 51°9.94 2°35.016 145.9 1 211 11.1
2004-05-18 07:40:45 51°9.924 2°35.001 153.7 1.2 210 11.6
2004-05-18 07:41:44 51°9.906 2°34.985 157.4 1.3 209 11.8
2004-05-18 07:42:44 51°9.888 2°34.97 157.5 1.2 203 12.5
2004-05-18 07:43:44 51°9.868 2°34.955 153.3 1.3 205 13.2
2004-05-18 07:44:44 51°9.849 2°34.941 150 1.3 205 13.7
2004-05-18 07:45:44 51°9.829 2°34.925 148.5 1.3 205 14.7
2004-05-18 07:46:45 51°9.81 2°34.911 146 1.3 206 14.9
2004-05-18 07:47:44 51°9.791 2°34.897 143.3 1.3 205 15.5
2004-05-18 07:48:45 51°9.771 2°34.882 140.2 1.3 206 15.9
2004-05-18 07:49:44 51°9.752 2°34.868 138.9 1.3 206 16.1
2004-05-18 07:50:44 51°9.733 2°34.854 138.6 1.3 207 16.6
2004-05-18 07:51:44 51°9.714 2°34.837 140.4 1.4 209 17.1
2004-05-18 07:52:45 51°9.693 2°34.817 145.5 1.5 211 17.2
2004-05-18 07:53:44 51°9.671 2°34.795 149.5 1.7 214 17.5
2004-05-18 07:54:45 51°9.649 2°34.769 150.2 1.7 217 17.6
2004-05-18 07:55:44 51°9.627 2°34.743 148.7 1.7 219 17.8
2004-05-18 07:56:44 51°9.604 2°34.716 146.7 1.7 217 18.1
2004-05-18 07:57:45 51°9.582 2°34.689 144.4 1.6 218 18.4
2004-05-18 07:58:44 51°9.561 2°34.663 141.8 1.6 218 18.5
2004-05-18 07:59:44 51°9.541 2°34.636 139 1.6 219 18.7
2004-05-18 08:00:45 51°9.521 2°34.611 134.3 1.5 219 18.8
2004-05-18 08:01:49 51°9.507 2°34.686 72.9 5.9 63 19
2004-05-18 08:02:50 51°9.653 2°34.81 30.8 12.2 20 17.8
2004-05-18 08:03:48 51°9.829 2°34.963 39.6 12.7 32 14.9
2004-05-18 08:04:49 51°10.01 2°35.145 39 12.5 32 10.7
2004-05-18 08:05:55 51°10.204 2°35.344 39 12.7 32 10.6
2004-05-18 08:06:56 51°10.385 2°35.527 39.1 12.5 33 10.6
2004-05-18 08:07:57 51°10.562 2°35.709 38.5 12.5 32 9.9
2004-05-18 08:08:56 51°10.734 2°35.886 39.5 12.5 33 9.9
2004-05-18 08:09:56 51°10.908 2°36.067 40 12.5 34 10.5
2004-05-18 08:10:56 51°11.082 2°36.246 39 12.5 32 10.8
2004-05-18 08:11:56 51°11.257 2°36.424 39.1 12.5 33 11.1
2004-05-18 08:13:01 51°11.445 2°36.618 39.1 12.5 33 10.7
2004-05-18 08:14:02 51°11.622 2°36.801 39.1 12.4 33 10.9
2004-05-18 08:15:08 51°11.812 2°36.998 39.7 12.4 34 11.1
2004-05-18 08:16:12 51°11.996 2°37.188 39.3 12.3 33 11
2004-05-18 08:17:13 51°12.171 2°37.372 39.6 12.4 34 11.1
2004-05-18 08:18:13 51°12.343 2°37.552 39.1 12.4 33 11.6
2004-05-18 08:19:12 51°12.516 2°37.721 36.1 12.4 29 11.9
2004-05-18 08:20:14 51°12.705 2°37.881 32.8 12.5 26 12.2
2004-05-18 08:21:12 51°12.885 2°38.024 33.6 12.5 27 12.7
2004-05-18 08:22:21 51°13.103 2°38.183 30.9 12.5 24 13.4
2004-05-18 08:23:21 51°13.294 2°38.319 31.1 12.5 24 13.7
2004-05-18 08:24:20 51°13.482 2°38.453 30.8 12.6 24 13.8
2004-05-18 08:25:21 51°13.678 2°38.584 28.9 12.7 22 13.3
2004-05-18 08:26:21 51°13.875 2°38.702 23.8 12.7 16 12.2
2004-05-18 08:27:21 51°14.079 2°38.672 344.1 13 329 12.5
2004-05-18 08:28:21 51°14.215 2°38.397 300 14 285 17.2
2004-05-18 08:29:25 51°14.117 2°38.029 240.2 15.2 236 18
2004-05-18 08:30:24 51°13.987 2°37.688 243.5 15.4 240 18.6
2004-05-18 08:31:24 51°13.857 2°37.336 243.8 15.4 240 18.8
2004-05-18 08:32:26 51°13.739 2°36.962 248.2 15.2 244 19.8
2004-05-18 08:33:33 51°13.616 2°36.558 248.9 15.1 245 18.6
2004-05-18 08:34:42 51°13.489 2°36.141 247.8 15.2 244 17.2
2004-05-18 08:35:42 51°13.379 2°35.777 247.8 15.3 245 17.2
2004-05-18 08:36:42 51°13.27 2°35.415 248.2 15.2 245 17.2
2004-05-18 08:37:46 51°13.152 2°35.027 248.5 15.2 244 16.9
2004-05-18 08:38:52 51°13.029 2°34.627 248.7 15.2 244 17.4
2004-05-18 08:39:52 51°12.917 2°34.268 248.8 15.2 244 17.1
2004-05-18 08:40:52 51°12.804 2°33.91 247.9 15.1 242 16.1
2004-05-18 08:41:52 51°12.69 2°33.556 248 14.9 243 15
2004-05-18 08:42:52 51°12.578 2°33.205 248.6 14.8 243 14.9
2004-05-18 08:43:52 51°12.465 2°32.855 248.8 14.9 244 15.1
2004-05-18 08:44:52 51°12.366 2°32.496 252.2 14.7 246 16.2
2004-05-18 08:45:57 51°12.262 2°32.107 252.5 14.7 247 17.6
2004-05-18 08:46:56 51°12.167 2°31.753 252.1 14.8 247 19.4
2004-05-18 08:47:56 51°12.07 2°31.392 252.6 14.8 247 20.9
2004-05-18 08:49:02 51°11.963 2°30.995 252.5 14.8 246 21.6
2004-05-18 08:50:02 51°11.865 2°30.633 252.5 14.9 247 22.7
2004-05-18 08:51:02 51°11.768 2°30.269 252.8 14.9 248 22.5
2004-05-18 08:52:06 51°11.663 2°29.88 252.1 15 247 22.9
2004-05-18 08:53:06 51°11.566 2°29.513 251.8 15 247 22.8
2004-05-18 08:54:10 51°11.462 2°29.122 252.5 15 247 23.5
2004-05-18 08:55:08 51°11.368 2°28.767 251.9 15.1 247 23.1
2004-05-18 08:56:09 51°11.269 2°28.394 252.1 15 247 22.3
2004-05-18 08:57:16 51°11.192 2°27.97 261.2 14.9 255 21.5
2004-05-18 08:58:15 51°11.129 2°27.596 260.7 14.8 254 21.9
2004-05-18 08:59:16 51°11.063 2°27.213 260.8 14.7 255 21.1
2004-05-18 09:00:17 51°11.042 2°26.823 273.7 14.5 267 22.5
2004-05-18 09:01:16 51°11.031 2°26.451 273.4 14.3 267 21.2
2004-05-18 09:02:16 51°11.038 2°26.081 287.3 13.8 284 17.6
2004-05-18 09:03:16 51°11.099 2°25.733 291.1 13.5 285 13.7
2004-05-18 09:04:17 51°11.209 2°25.426 320.7 13.3 318 18.2
2004-05-18 09:05:16 51°11.399 2°25.263 342.3 13.3 334 24.6
2004-05-18 09:06:17 51°11.609 2°25.212 17.6 12.6 14 27
2004-05-18 09:07:16 51°11.802 2°25.333 28.9 12.7 22 24.8
2004-05-18 09:08:17 51°12 2°25.468 30.1 12.7 26 25.5
2004-05-18 09:09:16 51°12.189 2°25.611 30.4 12.8 26 25.8
2004-05-18 09:10:16 51°12.381 2°25.76 30.4 12.8 25 25.7
2004-05-18 09:11:17 51°12.574 2°25.909 31.7 12.7 26 26.2
2004-05-18 09:12:17 51°12.764 2°26.053 31.2 12.6 25 25.8
2004-05-18 09:13:17 51°12.954 2°26.197 30.9 12.4 25 25.8
2004-05-18 09:14:17 51°13.057 2°26.306 49.3 4.8 48 26.9
2004-05-18 09:15:16 51°13.084 2°26.381 64.5 2.2 72 26.5
2004-05-18 09:16:16 51°13.075 2°26.398 107.9 0.9 181 26.7
2004-05-18 09:17:17 51°13.056 2°26.396 133 1.2 185 26.4
2004-05-18 09:18:17 51°13.035 2°26.393 143.5 1.5 192 26.6
2004-05-18 09:19:17 51°13.012 2°26.392 139.3 1.6 172 26.5
2004-05-18 09:20:16 51°12.987 2°26.417 106.3 2.6 119 26.8
2004-05-18 09:21:17 51°12.974 2°26.471 85.1 1.9 106 26.7
2004-05-18 09:22:16 51°12.968 2°26.513 75.4 1.5 101 26.5
2004-05-18 09:23:16 51°12.965 2°26.553 73.4 1.5 97 26.2
2004-05-18 09:24:16 51°12.963 2°26.594 75.8 1.6 99 26.1
2004-05-18 09:25:17 51°12.958 2°26.637 77.6 1.6 99 26.2
2004-05-18 09:26:17 51°12.952 2°26.68 80.5 1.7 100 26
2004-05-18 09:27:17 51°12.945 2°26.726 83.5 1.8 104 25.9
2004-05-18 09:28:16 51°12.937 2°26.773 85.6 1.9 105 25.9
2004-05-18 09:29:17 51°12.929 2°26.822 86.8 1.9 104 25.7
2004-05-18 09:30:17 51°12.922 2°26.871 87.2 1.9 104 25.6
2004-05-18 09:31:17 51°12.916 2°26.921 87.3 1.9 105 25.4
2004-05-18 09:32:17 51°12.908 2°26.97 88.4 2 105 25.6
2004-05-18 09:33:16 51°12.9 2°27.02 89.2 2 103 24.2
2004-05-18 09:34:16 51°12.892 2°27.071 88.7 2 101 25.1
2004-05-18 09:35:17 51°12.887 2°27.125 88 2 98 25.1
2004-05-18 09:36:17 51°12.883 2°27.179 87.1 2 97 25.2
2004-05-18 09:37:17 51°12.878 2°27.231 92.9 1.9 101 25.2
2004-05-18 09:38:17 51°12.871 2°27.275 97.2 1.6 102 25.4
2004-05-18 09:39:17 51°12.864 2°27.314 99.1 1.5 106 25.1
2004-05-18 09:40:17 51°12.857 2°27.348 101.3 1.3 109 25.1
2004-05-18 09:41:17 51°12.849 2°27.381 99.4 1.2 107 24.9
2004-05-18 09:42:16 51°12.843 2°27.41 93.1 1.1 104 24.6
2004-05-18 09:43:17 51°12.839 2°27.439 87.8 1.1 105 24.3
2004-05-18 09:44:17 51°12.835 2°27.465 84.9 1 104 24.2
2004-05-18 09:45:16 51°12.832 2°27.49 83.4 0.9 103 22.9
2004-05-18 09:46:17 51°12.829 2°27.517 81.9 1.6 91 23.3
2004-05-18 09:47:16 51°12.853 2°27.579 37.1 4.5 38 22.6
2004-05-18 09:48:25 51°13.034 2°27.747 33.8 13.8 30 24.4
2004-05-18 09:49:25 51°13.231 2°27.947 36.9 14 32 23.5
2004-05-18 09:50:25 51°13.426 2°28.153 37.1 14 33 22.9
2004-05-18 09:51:24 51°13.616 2°28.354 37.4 13.9 33 22.4
2004-05-18 09:52:24 51°13.809 2°28.557 37.2 13.9 33 22.3
2004-05-18 09:53:24 51°14.002 2°28.76 37.2 13.9 33 23.7
2004-05-18 09:54:24 51°14.196 2°28.962 37.2 13.9 33 24.3
2004-05-18 09:55:24 51°14.39 2°29.165 37.7 14 33 26.3
2004-05-18 09:56:24 51°14.584 2°29.369 38.4 13.9 35 28.2
2004-05-18 09:57:24 51°14.775 2°29.58 39.1 14 35 28.3
2004-05-18 09:58:24 51°14.965 2°29.795 39.8 14 35 28.7
2004-05-18 09:59:25 51°15.158 2°30.013 40 14 36 28.6
2004-05-18 10:00:24 51°15.344 2°30.23 40.3 14.1 37 29.2
2004-05-18 10:01:25 51°15.536 2°30.454 40.4 14.1 36 29
2004-05-18 10:02:25 51°15.726 2°30.674 40.1 14.1 36 29.2
2004-05-18 10:03:25 51°15.915 2°30.894 40.4 14.1 36 29.5
2004-05-18 10:04:24 51°16.102 2°31.11 40.2 14.1 36 29.9
2004-05-18 10:05:24 51°16.288 2°31.332 40.3 13.9 37 29.6
2004-05-18 10:06:24 51°16.473 2°31.552 40.4 13.9 36 29.2
2004-05-18 10:07:24 51°16.659 2°31.771 40.1 13.8 36 29.1
2004-05-18 10:08:25 51°16.847 2°31.993 40.4 13.9 37 28.2
2004-05-18 10:09:25 51°17.034 2°32.215 40.5 14.1 37 28.1
2004-05-18 10:10:25 51°17.223 2°32.439 40.5 14.1 37 28.6
2004-05-18 10:11:24 51°17.408 2°32.658 40.4 14 37 28.6
2004-05-18 10:12:25 51°17.599 2°32.884 40.6 14.1 37 28.7
2004-05-18 10:13:25 51°17.787 2°33.108 40.5 14.2 37 26.8
2004-05-18 10:14:24 51°17.972 2°33.331 40.4 14.2 37 26.7
2004-05-18 10:15:25 51°18.164 2°33.564 40.5 14.3 37 25
2004-05-18 10:16:25 51°18.354 2°33.794 39.1 14.3 36 24.2
2004-05-18 10:17:24 51°18.542 2°34.017 39.1 14.4 37 20.8
2004-05-18 10:18:24 51°18.735 2°34.245 39.5 14.4 36 20.1
2004-05-18 10:19:24 51°18.927 2°34.472 39.6 14.3 37 18.2
2004-05-18 10:20:25 51°19.121 2°34.703 39.3 14.3 37 18.4
2004-05-18 10:21:25 51°19.311 2°34.929 39.9 14.3 37 18.7
2004-05-18 10:22:24 51°19.498 2°35.148 39.9 14.1 37 20
2004-05-18 10:23:24 51°19.673 2°35.36 43.7 9.6 45 18.7
2004-05-18 10:24:24 51°19.708 2°35.481 100.4 1.7 93 21
2004-05-18 10:25:24 51°19.702 2°35.513 142.5 1.2 112 20.5
2004-05-18 10:26:25 51°19.689 2°35.54 168.4 1.5 140 21.3
2004-05-18 10:27:26 51°19.664 2°35.561 184.3 2.1 161 21.9
2004-05-18 10:28:24 51°19.626 2°35.578 182.8 2.6 165 21.8
2004-05-18 10:29:26 51°19.582 2°35.6 177.5 2.7 160 22.1
2004-05-18 10:30:24 51°19.542 2°35.625 177.1 2.6 159 22.5
2004-05-18 10:31:26 51°19.501 2°35.65 179.2 2.5 159 23.1
2004-05-18 10:32:26 51°19.462 2°35.673 182.8 2.5 160 23
2004-05-18 10:33:25 51°19.424 2°35.693 186.2 2.4 162 23.1
2004-05-18 10:34:26 51°19.387 2°35.709 191.3 2.3 167 24
2004-05-18 10:35:26 51°19.351 2°35.718 197.3 2.2 173 21.2
2004-05-18 10:36:26 51°19.316 2°35.722 203.8 2.1 179 24.5
2004-05-18 10:37:26 51°19.283 2°35.719 211.2 2 188 22
2004-05-18 10:38:26 51°19.246 2°35.711 209.1 3.1 189 25.4
2004-05-18 10:39:26 51°19.158 2°35.799 143.9 10.4 134 25.5
2004-05-18 10:40:25 51°19.097 2°36.124 94.9 14.4 84 25.4
2004-05-18 10:41:26 51°19.159 2°36.51 78.8 14.9 74 21.9
2004-05-18 10:42:26 51°19.225 2°36.887 79.8 14.7 74 21.3
2004-05-18 10:43:26 51°19.29 2°37.261 79.9 14.6 75 22.3
2004-05-18 10:44:26 51°19.353 2°37.635 79.8 14.5 75 23.5
2004-05-18 10:45:24 51°19.414 2°37.999 80.3 14.5 75 23.4
2004-05-18 10:46:25 51°19.483 2°38.371 80 14.3 73 25.7
2004-05-18 10:47:26 51°19.552 2°38.74 79.9 14.4 73 28
2004-05-18 10:48:24 51°19.623 2°39.097 80 14.4 72 30.2
2004-05-18 10:49:26 51°19.679 2°39.476 86.2 14.4 78 32.2
2004-05-18 10:50:26 51°19.729 2°39.85 85.6 14.4 77 32.1
2004-05-18 10:51:26 51°19.78 2°40.225 85.1 14.5 77 30.3
2004-05-18 10:52:25 51°19.83 2°40.597 85.8 14.7 79 22.3
2004-05-18 10:53:26 51°19.877 2°40.989 84.6 14.8 79 24.1
2004-05-18 10:54:26 51°19.923 2°41.372 85.6 14.7 79 20.7
2004-05-18 10:55:26 51°19.969 2°41.757 85.2 14.7 79 21.9
2004-05-18 10:56:26 51°20.018 2°42.138 84.9 14.6 77 23.9
2004-05-18 10:57:26 51°20.072 2°42.515 85 14.5 77 26.7
2004-05-18 10:58:26 51°20.119 2°42.891 88.6 14.5 80 27.4
2004-05-18 10:59:25 51°20.158 2°43.265 89.4 14.5 81 28.7
2004-05-18 11:00:26 51°20.199 2°43.653 89 14.6 80 27.6
2004-05-18 11:01:26 51°20.241 2°44.036 88.7 14.7 80 28.8
2004-05-18 11:02:26 51°20.281 2°44.418 89.1 14.7 80 28.9
2004-05-18 11:03:26 51°20.324 2°44.803 88 14.8 79 27.4
2004-05-18 11:04:25 51°20.364 2°45.18 88.2 14.8 81 26.4
2004-05-18 11:05:32 51°20.403 2°45.542 89.3 8.4 80 26.4
2004-05-18 11:06:32 51°20.419 2°45.681 96.6 3.3 78 24
2004-05-18 11:07:32 51°20.43 2°45.722 118.3 1.9 77 23
2004-05-18 11:08:32 51°20.419 2°45.81 132.5 3.8 107 24.7
2004-05-18 11:09:32 51°20.398 2°45.9 140.8 3.4 113 22.6
2004-05-18 11:10:33 51°20.375 2°45.981 145.8 3.2 114 19.2
2004-05-18 11:11:37 51°20.35 2°46.059 154.4 3 120 19.4
2004-05-18 11:12:48 51°20.319 2°46.127 170.6 2.5 133 19.8
2004-05-18 11:13:48 51°20.29 2°46.174 175 2.5 136 19
2004-05-18 11:14:48 51°20.26 2°46.219 176.2 2.4 136 18.2
2004-05-18 11:15:48 51°20.231 2°46.265 175.6 2.5 136 18
2004-05-18 11:16:48 51°20.201 2°46.311 175 2.5 137 18.4
2004-05-18 11:17:48 51°20.171 2°46.358 176.2 2.5 136 16.1
2004-05-18 11:18:48 51°20.139 2°46.41 177 2.5 140 18.3
2004-05-18 11:19:48 51°20.108 2°46.452 176.6 2.7 139 17.2
2004-05-18 11:20:48 51°20.073 2°46.496 175.5 2.8 140 17.4
2004-05-18 11:21:48 51°19.985 2°46.596 153 11.3 142 18.8
2004-05-18 11:22:54 51°19.803 2°46.863 141.1 13.8 132 22.4
2004-05-18 11:23:55 51°19.652 2°47.146 137.5 13.8 128 24
2004-05-18 11:24:54 51°19.512 2°47.434 135.6 14.1 127 24.1
2004-05-18 11:25:55 51°19.37 2°47.74 134.9 14.1 127 23.6
2004-05-18 11:27:03 51°19.211 2°48.081 135.2 14 127 21.1
2004-05-18 11:28:02 51°19.073 2°48.376 136.1 14.2 127 18.9
2004-05-18 11:29:03 51°18.935 2°48.689 131.9 14.4 122 16.7
2004-05-18 11:30:03 51°18.804 2°49.008 132.3 14.4 124 14
2004-05-18 11:31:02 51°18.674 2°49.324 132.4 14.5 125 13.1
2004-05-18 11:32:03 51°18.539 2°49.653 131.3 14.6 123 14.9
2004-05-18 11:33:02 51°18.41 2°49.971 131.4 14.5 123 16.7
2004-05-18 11:34:05 51°18.275 2°50.309 132.8 14.3 124 16.8
2004-05-18 11:35:06 51°18.157 2°50.603 132 10.2 120 16.1
2004-05-18 11:36:06 51°18.112 2°50.75 123.2 2.9 97 15.8
2004-05-18 11:37:06 51°18.117 2°50.824 99.2 3.1 82 15.8
2004-05-18 11:38:06 51°18.125 2°50.91 102.8 3.3 85 15.6
2004-05-18 11:39:06 51°18.128 2°51 114.6 3.4 91 15.6
2004-05-18 11:40:06 51°18.123 2°51.087 128.9 3.2 100 15.3
2004-05-18 11:41:05 51°18.11 2°51.164 146.6 2.9 111 15
2004-05-18 11:42:04 51°18.09 2°51.226 164.6 2.5 124 14.8
2004-05-18 11:43:06 51°18.064 2°51.271 182.6 2 138 14.7
2004-05-18 11:44:06 51°18.04 2°51.296 200.2 1.5 157 14.5
2004-05-18 11:45:06 51°18.019 2°51.301 218.5 1 186 14.3
2004-05-18 11:46:05 51°18.006 2°51.292 236.6 0.8 221 14.2
2004-05-18 11:47:06 51°17.999 2°51.272 245.4 0.9 250 14.3
2004-05-18 11:48:10 51°17.997 2°51.243 255.2 1.1 272 14.3
2004-05-18 11:49:10 51°18 2°51.21 263.7 1.4 285 14.3
2004-05-18 11:50:10 51°17.998 2°51.178 235.7 1.6 223 14.6
2004-05-18 11:51:10 51°17.893 2°51.186 169.5 10.4 155 13.8
2004-05-18 11:52:10 51°17.751 2°51.447 136.1 14 128 12.8
2004-05-18 11:53:10 51°17.607 2°51.74 136.5 14.1 128 12.8
2004-05-18 11:54:10 51°17.465 2°52.038 137.1 14.2 128 13.4
2004-05-18 11:55:10 51°17.319 2°52.338 137 14.4 128 13.1
2004-05-18 11:56:10 51°17.172 2°52.635 137 14.4 128 12.4
2004-05-18 11:57:10 51°17.024 2°52.93 136.9 14.2 128 11.9
2004-05-18 11:58:10 51°16.877 2°53.225 137.1 14.2 128 11.7
2004-05-18 11:59:11 51°16.729 2°53.524 137.3 12.5 128 14.2
2004-05-18 12:00:11 51°16.669 2°53.707 129.9 4.3 107 14.8
2004-05-18 12:01:08 51°16.656 2°53.771 158.2 2.5 115 14.9
2004-05-18 12:02:11 51°16.636 2°53.833 158.7 2.5 115 15
2004-05-18 12:03:19 51°16.615 2°53.904 151.3 2.8 115 15
2004-05-18 12:04:19 51°16.596 2°53.977 145.6 3.1 112 14.9
2004-05-18 12:05:19 51°16.576 2°54.055 144.6 3.2 113 14.9
2004-05-18 12:06:19 51°16.555 2°54.13 152.1 3 119 14.8
2004-05-18 12:07:17 51°16.53 2°54.193 162 2.8 126 14.8
2004-05-18 12:08:19 51°16.5 2°54.248 173.8 2.5 137 14.8
2004-05-18 12:09:18 51°16.47 2°54.281 190.5 2 153 14.8
2004-05-18 12:10:19 51°16.443 2°54.293 209.3 1.4 178 14.6
2004-05-18 12:11:18 51°16.423 2°54.287 219.4 1.2 194 14.6
2004-05-18 12:12:18 51°16.406 2°54.273 231.4 1.2 221 14.7
2004-05-18 12:13:19 51°16.393 2°54.249 233.9 1.2 222 14.8
2004-05-18 12:14:17 51°16.317 2°54.218 193.5 7.6 182 14.6
2004-05-18 12:15:24 51°16.103 2°54.243 184.9 12.8 177 14.1
2004-05-18 12:16:24 51°15.889 2°54.266 184.6 12.9 176 13.7
2004-05-18 12:17:25 51°15.673 2°54.283 184.7 12.7 176 13.1
2004-05-18 12:18:24 51°15.464 2°54.328 176.6 12.9 168 12.4
2004-05-18 12:19:24 51°15.252 2°54.4 176.8 13 170 11.7
2004-05-18 12:20:25 51°15.035 2°54.472 174.2 13.2 166 11.2
2004-05-18 12:21:24 51°14.829 2°54.577 169.1 13.3 160 12.2
2004-05-18 12:22:29 51°14.626 2°54.726 157.4 10.2 147 12.5
2004-05-18 12:23:29 51°14.513 2°54.858 154.1 7.6 139 12.8
2004-05-18 12:24:30 51°14.429 2°54.978 157.4 6.1 140 13.6
2004-05-18 12:25:29 51°14.358 2°55.081 152 5.5 145 13.7
2004-05-18 12:26:29 51°14.299 2°55.179 131.8 5.2 130 13.9
2004-05-18 12:27:30 51°14.226 2°55.317 133.5 7.1 130 13.8
2004-05-18 12:28:29 51°14.149 2°55.424 146.6 5.7 143 13.8
2004-05-18 12:29:29 51°14.07 2°55.49 162.8 5.2 160 14
2004-05-18 12:30:30 51°13.978 2°55.544 163 6.8 160 13.3
2004-05-18 12:31:29 51°13.864 2°55.612 161.6 7.7 158 12.4
2004-05-18 12:32:29 51°13.755 2°55.696 153.6 6.5 149 12.7
2004-05-18 12:33:30 51°13.69 2°55.785 131.6 4.3 129 15.6